Aurora State Airport
KUAO : rendu visible

Aérodrome :











RETROUVEZ-NOUS SUR...

 
LOGIN :

S'inscrire | Disclaimer

   EN    FR    IT 

 









Légende :    VFR   VFR Marginal   IFR   IFR Intensif   IFR Très Intensif
Visi : 
Plafond : 
>= 8 km
>= 3000ft
5 à 8 km
1000 à 3000 ft
1500m à 5 km
500 à 1000 ft
800 à 1500m
200 à 500 ft
< 800m
< 200 ft
Symboles :   Orages  Brouillard  Fortes neiges  Fortes précipitations  Vent > 20 kt






- Altitude de l'aérodrome : 200 ft


KUAO - Aurora State

DERNIER METAR :
  • 250153Z 00000KT 10SM FEW080 OVC100 22/09 A3011 RMK AO2 SLP195 T02220094

METARs EXPIRÉS :
  • 250053Z 00000KT 10SM BKN085 OVC100 22/08 A3013 RMK AO2 SLP200 T02220078
  • 242353Z 00000KT 10SM CLR 23/07 A3013 RMK AO2 SLP203 T02280072 10228 20167 56014

TAF KUAO
Valide du 25 à 00h jusqu'au 26 à 00h UTC


242333Z 2500/2524 24005KT P6SM BKN100
FM250800 VRB03KT P6SM OVC080
FM251600 VRB03KT P6SM -RA BKN045 OVC060
FM252200 18004KT P6SM OVC035
FIR KZSE / Amérique du Nord



MET'MAP, la Météo Aéronautique d'un coup d'oeil ! - Copyright ORBIFLY Décembre 2007 - Disclaimer

ORBIFLY MET'MAP TEAM :

Programmation & Développement : Alexandra Zaïnal
Sur une idée originale de : Baudouin d'Aumeries
Assistance à la programmation : Marc-Olivier Méhu
Soutien technique & logistique : Manuel Goepfert

Contact : metmap@orbifly.com




SOURCES & CREDITS :

   NOAA       Earth
Advisory